sensor_id;sensor_type;location;lat;lon;timestamp;P1;durP1;ratioP1;P2;durP2;ratioP2
50709;SDS011;37033;49.994;21.992;2024-03-22T00:01:53;111.90;;;44.70;;
50709;SDS011;37033;49.994;21.992;2024-03-22T00:04:23;112.60;;;45.90;;
50709;SDS011;37033;49.994;21.992;2024-03-22T00:06:54;94.20;;;38.70;;
50709;SDS011;37033;49.994;21.992;2024-03-22T00:09:24;64.20;;;31.70;;
50709;SDS011;37033;49.994;21.992;2024-03-22T00:11:54;54.70;;;26.30;;
50709;SDS011;37033;49.994;21.992;2024-03-22T00:14:24;51.90;;;26.40;;
50709;SDS011;37033;49.994;21.992;2024-03-22T00:16:54;54.50;;;26.30;;
50709;SDS011;37033;49.994;21.992;2024-03-22T00:19:24;55.70;;;24.90;;
50709;SDS011;37033;49.994;21.992;2024-03-22T00:21:54;52.20;;;25.50;;
50709;SDS011;37033;49.994;21.992;2024-03-22T00:24:24;54.00;;;25.40;;
50709;SDS011;37033;49.994;21.992;2024-03-22T00:26:54;56.50;;;25.50;;
50709;SDS011;37033;49.994;21.992;2024-03-22T00:29:24;63.30;;;27.60;;
50709;SDS011;37033;49.994;21.992;2024-03-22T00:31:54;50.70;;;24.40;;
50709;SDS011;37033;49.994;21.992;2024-03-22T00:34:24;49.80;;;25.50;;
50709;SDS011;37033;49.994;21.992;2024-03-22T00:36:54;57.40;;;25.60;;
50709;SDS011;37033;49.994;21.992;2024-03-22T00:39:24;56.10;;;26.50;;
50709;SDS011;37033;49.994;21.992;2024-03-22T00:41:54;58.70;;;24.80;;
50709;SDS011;37033;49.994;21.992;2024-03-22T00:44:24;55.70;;;25.80;;
50709;SDS011;37033;49.994;21.992;2024-03-22T00:46:54;52.60;;;24.90;;
50709;SDS011;37033;49.994;21.992;2024-03-22T00:49:24;48.10;;;24.80;;
50709;SDS011;37033;49.994;21.992;2024-03-22T00:51:54;50.80;;;24.70;;
50709;SDS011;37033;49.994;21.992;2024-03-22T00:54:24;52.10;;;25.00;;
50709;SDS011;37033;49.994;21.992;2024-03-22T00:56:54;49.40;;;24.90;;
50709;SDS011;37033;49.994;21.992;2024-03-22T00:59:24;46.60;;;23.40;;
50709;SDS011;37033;49.994;21.992;2024-03-22T01:01:54;45.80;;;23.50;;
50709;SDS011;37033;49.994;21.992;2024-03-22T01:04:24;47.90;;;23.40;;
50709;SDS011;37033;49.994;21.992;2024-03-22T01:06:54;49.20;;;23.10;;
50709;SDS011;37033;49.994;21.992;2024-03-22T01:09:24;47.60;;;24.10;;
50709;SDS011;37033;49.994;21.992;2024-03-22T01:11:55;47.40;;;23.10;;
50709;SDS011;37033;49.994;21.992;2024-03-22T01:14:25;55.30;;;24.10;;
50709;SDS011;37033;49.994;21.992;2024-03-22T01:16:55;51.60;;;24.00;;
50709;SDS011;37033;49.994;21.992;2024-03-22T01:19:25;50.70;;;24.10;;
50709;SDS011;37033;49.994;21.992;2024-03-22T01:21:55;53.20;;;24.90;;
50709;SDS011;37033;49.994;21.992;2024-03-22T01:24:25;52.20;;;25.50;;
50709;SDS011;37033;49.994;21.992;2024-03-22T01:26:55;52.60;;;25.00;;
50709;SDS011;37033;49.994;21.992;2024-03-22T01:29:25;41.80;;;22.90;;
50709;SDS011;37033;49.994;21.992;2024-03-22T01:31:57;51.30;;;24.90;;
50709;SDS011;37033;49.994;21.992;2024-03-22T01:34:28;43.80;;;22.80;;
50709;SDS011;37033;49.994;21.992;2024-03-22T01:36:58;46.20;;;21.00;;
50709;SDS011;37033;49.994;21.992;2024-03-22T01:39:28;46.80;;;21.70;;
50709;SDS011;37033;49.994;21.992;2024-03-22T01:41:58;45.20;;;21.90;;
50709;SDS011;37033;49.994;21.992;2024-03-22T01:44:28;41.60;;;20.00;;
50709;SDS011;37033;49.994;21.992;2024-03-22T01:47:00;43.30;;;22.30;;
50709;SDS011;37033;49.994;21.992;2024-03-22T01:49:30;44.50;;;21.10;;
50709;SDS011;37033;49.994;21.992;2024-03-22T01:52:01;42.30;;;20.70;;
50709;SDS011;37033;49.994;21.992;2024-03-22T01:54:31;44.10;;;20.60;;
50709;SDS011;37033;49.994;21.992;2024-03-22T01:57:01;39.70;;;20.70;;
50709;SDS011;37033;49.994;21.992;2024-03-22T01:59:32;40.40;;;20.70;;
50709;SDS011;37033;49.994;21.992;2024-03-22T02:02:02;37.50;;;19.50;;
50709;SDS011;37033;49.994;21.992;2024-03-22T02:04:33;45.70;;;22.00;;
50709;SDS011;37033;49.994;21.992;2024-03-22T02:07:03;60.20;;;25.40;;
50709;SDS011;37033;49.994;21.992;2024-03-22T02:09:33;54.90;;;27.40;;
50709;SDS011;37033;49.994;21.992;2024-03-22T02:12:04;55.60;;;25.50;;
50709;SDS011;37033;49.994;21.992;2024-03-22T02:14:34;55.40;;;26.50;;
50709;SDS011;37033;49.994;21.992;2024-03-22T02:17:04;53.80;;;27.40;;
50709;SDS011;37033;49.994;21.992;2024-03-22T02:19:34;54.00;;;26.40;;
50709;SDS011;37033;49.994;21.992;2024-03-22T02:22:04;47.70;;;22.30;;
50709;SDS011;37033;49.994;21.992;2024-03-22T02:24:34;49.00;;;22.40;;
50709;SDS011;37033;49.994;21.992;2024-03-22T02:27:04;45.40;;;22.30;;
50709;SDS011;37033;49.994;21.992;2024-03-22T02:29:34;51.40;;;22.00;;
50709;SDS011;37033;49.994;21.992;2024-03-22T02:32:05;39.50;;;20.90;;
50709;SDS011;37033;49.994;21.992;2024-03-22T02:34:35;41.30;;;19.90;;
50709;SDS011;37033;49.994;21.992;2024-03-22T02:37:05;42.90;;;20.80;;
50709;SDS011;37033;49.994;21.992;2024-03-22T02:39:35;37.20;;;19.40;;
50709;SDS011;37033;49.994;21.992;2024-03-22T02:42:05;38.10;;;19.70;;
50709;SDS011;37033;49.994;21.992;2024-03-22T02:44:35;47.10;;;20.40;;
50709;SDS011;37033;49.994;21.992;2024-03-22T02:47:10;41.80;;;20.80;;
50709;SDS011;37033;49.994;21.992;2024-03-22T02:49:41;40.40;;;20.70;;
50709;SDS011;37033;49.994;21.992;2024-03-22T02:52:12;39.90;;;19.10;;
50709;SDS011;37033;49.994;21.992;2024-03-22T02:54:42;38.60;;;20.30;;
50709;SDS011;37033;49.994;21.992;2024-03-22T02:57:12;43.00;;;20.80;;
50709;SDS011;37033;49.994;21.992;2024-03-22T02:59:42;40.50;;;20.60;;
50709;SDS011;37033;49.994;21.992;2024-03-22T03:02:12;38.30;;;20.40;;
50709;SDS011;37033;49.994;21.992;2024-03-22T03:04:41;38.00;;;19.80;;
50709;SDS011;37033;49.994;21.992;2024-03-22T03:07:11;38.90;;;19.10;;
50709;SDS011;37033;49.994;21.992;2024-03-22T03:09:41;37.40;;;19.30;;
50709;SDS011;37033;49.994;21.992;2024-03-22T03:12:11;37.00;;;18.50;;
50709;SDS011;37033;49.994;21.992;2024-03-22T03:14:41;38.70;;;18.90;;
50709;SDS011;37033;49.994;21.992;2024-03-22T03:17:11;42.10;;;19.70;;
50709;SDS011;37033;49.994;21.992;2024-03-22T03:19:41;42.10;;;19.30;;
50709;SDS011;37033;49.994;21.992;2024-03-22T03:22:12;33.50;;;18.10;;
50709;SDS011;37033;49.994;21.992;2024-03-22T03:24:43;31.80;;;17.30;;
50709;SDS011;37033;49.994;21.992;2024-03-22T03:27:13;35.40;;;17.90;;
50709;SDS011;37033;49.994;21.992;2024-03-22T03:29:43;30.60;;;16.80;;
50709;SDS011;37033;49.994;21.992;2024-03-22T03:32:13;31.40;;;17.00;;
50709;SDS011;37033;49.994;21.992;2024-03-22T03:34:43;34.40;;;18.30;;
50709;SDS011;37033;49.994;21.992;2024-03-22T03:37:13;31.60;;;17.70;;
50709;SDS011;37033;49.994;21.992;2024-03-22T03:39:43;29.20;;;16.30;;
50709;SDS011;37033;49.994;21.992;2024-03-22T03:42:13;30.60;;;17.10;;
50709;SDS011;37033;49.994;21.992;2024-03-22T03:44:43;33.00;;;17.70;;
50709;SDS011;37033;49.994;21.992;2024-03-22T03:47:13;28.80;;;16.10;;
50709;SDS011;37033;49.994;21.992;2024-03-22T03:49:44;30.10;;;16.60;;
50709;SDS011;37033;49.994;21.992;2024-03-22T03:52:15;32.80;;;17.20;;
50709;SDS011;37033;49.994;21.992;2024-03-22T03:54:45;29.10;;;16.90;;
50709;SDS011;37033;49.994;21.992;2024-03-22T03:57:15;30.70;;;17.60;;
50709;SDS011;37033;49.994;21.992;2024-03-22T03:59:45;35.60;;;16.40;;
50709;SDS011;37033;49.994;21.992;2024-03-22T04:02:14;37.70;;;17.00;;
50709;SDS011;37033;49.994;21.992;2024-03-22T04:04:44;34.40;;;17.30;;
50709;SDS011;37033;49.994;21.992;2024-03-22T04:07:14;28.30;;;16.00;;
50709;SDS011;37033;49.994;21.992;2024-03-22T04:09:45;33.40;;;16.80;;
50709;SDS011;37033;49.994;21.992;2024-03-22T04:12:15;29.20;;;16.50;;
50709;SDS011;37033;49.994;21.992;2024-03-22T04:14:45;27.80;;;15.80;;
50709;SDS011;37033;49.994;21.992;2024-03-22T04:17:15;27.40;;;15.90;;
50709;SDS011;37033;49.994;21.992;2024-03-22T04:19:45;32.70;;;17.30;;
50709;SDS011;37033;49.994;21.992;2024-03-22T04:22:17;29.70;;;16.00;;
50709;SDS011;37033;49.994;21.992;2024-03-22T04:24:47;34.50;;;17.60;;
50709;SDS011;37033;49.994;21.992;2024-03-22T04:27:17;32.90;;;17.40;;
50709;SDS011;37033;49.994;21.992;2024-03-22T04:29:48;33.50;;;18.30;;
50709;SDS011;37033;49.994;21.992;2024-03-22T04:32:18;37.90;;;17.40;;
50709;SDS011;37033;49.994;21.992;2024-03-22T04:34:48;41.60;;;17.90;;
50709;SDS011;37033;49.994;21.992;2024-03-22T04:37:18;30.60;;;16.70;;
50709;SDS011;37033;49.994;21.992;2024-03-22T04:39:48;37.40;;;18.70;;
50709;SDS011;37033;49.994;21.992;2024-03-22T04:42:18;32.00;;;17.60;;
50709;SDS011;37033;49.994;21.992;2024-03-22T04:44:48;31.90;;;18.00;;
50709;SDS011;37033;49.994;21.992;2024-03-22T04:47:18;33.60;;;18.10;;
50709;SDS011;37033;49.994;21.992;2024-03-22T04:49:48;34.00;;;17.00;;
50709;SDS011;37033;49.994;21.992;2024-03-22T04:52:18;35.80;;;19.30;;
50709;SDS011;37033;49.994;21.992;2024-03-22T04:54:48;33.30;;;18.60;;
50709;SDS011;37033;49.994;21.992;2024-03-22T04:57:18;37.70;;;19.50;;
50709;SDS011;37033;49.994;21.992;2024-03-22T04:59:48;38.20;;;18.30;;
50709;SDS011;37033;49.994;21.992;2024-03-22T05:02:18;39.30;;;18.60;;
50709;SDS011;37033;49.994;21.992;2024-03-22T05:04:48;38.30;;;19.70;;
50709;SDS011;37033;49.994;21.992;2024-03-22T05:07:17;33.50;;;17.90;;
50709;SDS011;37033;49.994;21.992;2024-03-22T05:09:47;43.10;;;20.00;;
50709;SDS011;37033;49.994;21.992;2024-03-22T05:12:18;36.60;;;18.30;;
50709;SDS011;37033;49.994;21.992;2024-03-22T05:14:48;38.90;;;17.50;;
50709;SDS011;37033;49.994;21.992;2024-03-22T05:17:18;39.00;;;20.00;;
50709;SDS011;37033;49.994;21.992;2024-03-22T05:19:47;38.80;;;19.30;;
50709;SDS011;37033;49.994;21.992;2024-03-22T05:22:17;39.70;;;20.30;;
50709;SDS011;37033;49.994;21.992;2024-03-22T05:24:49;40.70;;;20.00;;
50709;SDS011;37033;49.994;21.992;2024-03-22T05:27:19;32.90;;;18.00;;
50709;SDS011;37033;49.994;21.992;2024-03-22T05:29:50;33.70;;;18.40;;
50709;SDS011;37033;49.994;21.992;2024-03-22T05:32:20;33.30;;;18.80;;
50709;SDS011;37033;49.994;21.992;2024-03-22T05:34:50;38.20;;;18.40;;
50709;SDS011;37033;49.994;21.992;2024-03-22T05:37:20;36.80;;;17.40;;
50709;SDS011;37033;49.994;21.992;2024-03-22T05:39:50;37.10;;;18.30;;
50709;SDS011;37033;49.994;21.992;2024-03-22T05:42:20;29.20;;;15.80;;
50709;SDS011;37033;49.994;21.992;2024-03-22T05:44:50;31.80;;;18.40;;
50709;SDS011;37033;49.994;21.992;2024-03-22T05:47:22;36.60;;;17.90;;
50709;SDS011;37033;49.994;21.992;2024-03-22T05:49:52;36.40;;;18.90;;
50709;SDS011;37033;49.994;21.992;2024-03-22T05:52:22;38.40;;;19.50;;
50709;SDS011;37033;49.994;21.992;2024-03-22T05:54:52;33.50;;;18.80;;
50709;SDS011;37033;49.994;21.992;2024-03-22T05:57:23;38.40;;;20.30;;
50709;SDS011;37033;49.994;21.992;2024-03-22T05:59:53;36.70;;;19.70;;
50709;SDS011;37033;49.994;21.992;2024-03-22T06:02:23;37.20;;;19.20;;
50709;SDS011;37033;49.994;21.992;2024-03-22T06:04:53;43.40;;;22.30;;
50709;SDS011;37033;49.994;21.992;2024-03-22T06:07:23;34.80;;;19.70;;
50709;SDS011;37033;49.994;21.992;2024-03-22T06:09:53;41.30;;;20.90;;
50709;SDS011;37033;49.994;21.992;2024-03-22T06:12:23;43.00;;;21.20;;
50709;SDS011;37033;49.994;21.992;2024-03-22T06:14:53;40.00;;;21.90;;
50709;SDS011;37033;49.994;21.992;2024-03-22T06:17:23;32.20;;;19.70;;
50709;SDS011;37033;49.994;21.992;2024-03-22T06:19:53;44.00;;;21.60;;
50709;SDS011;37033;49.994;21.992;2024-03-22T06:22:23;37.30;;;21.10;;
50709;SDS011;37033;49.994;21.992;2024-03-22T06:24:53;38.70;;;21.30;;
50709;SDS011;37033;49.994;21.992;2024-03-22T06:27:23;36.50;;;20.30;;
50709;SDS011;37033;49.994;21.992;2024-03-22T06:29:53;39.70;;;21.30;;
50709;SDS011;37033;49.994;21.992;2024-03-22T06:32:22;38.40;;;21.10;;
50709;SDS011;37033;49.994;21.992;2024-03-22T06:34:52;32.20;;;19.60;;
50709;SDS011;37033;49.994;21.992;2024-03-22T06:37:22;47.20;;;22.90;;
50709;SDS011;37033;49.994;21.992;2024-03-22T06:39:52;38.50;;;20.30;;
50709;SDS011;37033;49.994;21.992;2024-03-22T06:42:22;41.50;;;21.40;;
50709;SDS011;37033;49.994;21.992;2024-03-22T06:44:54;41.60;;;22.00;;
50709;SDS011;37033;49.994;21.992;2024-03-22T06:47:24;41.40;;;22.70;;
50709;SDS011;37033;49.994;21.992;2024-03-22T06:49:54;41.20;;;22.60;;
50709;SDS011;37033;49.994;21.992;2024-03-22T06:52:25;38.00;;;22.50;;
50709;SDS011;37033;49.994;21.992;2024-03-22T06:54:55;42.70;;;22.20;;
50709;SDS011;37033;49.994;21.992;2024-03-22T06:57:25;43.00;;;22.30;;
50709;SDS011;37033;49.994;21.992;2024-03-22T06:59:55;42.80;;;23.10;;
50709;SDS011;37033;49.994;21.992;2024-03-22T07:02:25;42.00;;;22.50;;
50709;SDS011;37033;49.994;21.992;2024-03-22T07:04:55;45.20;;;23.30;;
50709;SDS011;37033;49.994;21.992;2024-03-22T07:07:25;44.50;;;23.60;;
50709;SDS011;37033;49.994;21.992;2024-03-22T07:09:55;50.50;;;22.80;;
50709;SDS011;37033;49.994;21.992;2024-03-22T07:12:26;45.70;;;24.10;;
50709;SDS011;37033;49.994;21.992;2024-03-22T07:14:56;46.30;;;24.50;;
50709;SDS011;37033;49.994;21.992;2024-03-22T07:17:26;47.60;;;24.40;;
50709;SDS011;37033;49.994;21.992;2024-03-22T07:19:56;54.90;;;26.30;;
50709;SDS011;37033;49.994;21.992;2024-03-22T07:22:25;48.10;;;26.70;;
50709;SDS011;37033;49.994;21.992;2024-03-22T07:24:56;54.40;;;28.00;;
50709;SDS011;37033;49.994;21.992;2024-03-22T07:27:26;53.30;;;28.00;;
50709;SDS011;37033;49.994;21.992;2024-03-22T07:29:58;50.00;;;26.50;;
50709;SDS011;37033;49.994;21.992;2024-03-22T07:32:28;47.90;;;26.20;;
50709;SDS011;37033;49.994;21.992;2024-03-22T07:34:59;53.80;;;27.50;;
50709;SDS011;37033;49.994;21.992;2024-03-22T07:37:29;58.00;;;28.50;;
50709;SDS011;37033;49.994;21.992;2024-03-22T07:39:59;57.50;;;29.10;;
50709;SDS011;37033;49.994;21.992;2024-03-22T07:42:29;59.00;;;30.00;;
50709;SDS011;37033;49.994;21.992;2024-03-22T07:44:59;66.10;;;33.20;;
50709;SDS011;37033;49.994;21.992;2024-03-22T07:47:29;69.30;;;34.00;;
50709;SDS011;37033;49.994;21.992;2024-03-22T07:49:59;60.00;;;30.50;;
50709;SDS011;37033;49.994;21.992;2024-03-22T07:52:29;63.60;;;32.30;;
50709;SDS011;37033;49.994;21.992;2024-03-22T07:54:59;73.60;;;34.30;;
50709;SDS011;37033;49.994;21.992;2024-03-22T07:57:30;65.10;;;34.90;;
50709;SDS011;37033;49.994;21.992;2024-03-22T08:00:00;71.60;;;36.20;;
50709;SDS011;37033;49.994;21.992;2024-03-22T08:02:30;75.80;;;37.60;;
50709;SDS011;37033;49.994;21.992;2024-03-22T08:05:00;65.10;;;35.40;;
50709;SDS011;37033;49.994;21.992;2024-03-22T08:07:31;69.10;;;34.50;;
50709;SDS011;37033;49.994;21.992;2024-03-22T08:10:01;68.90;;;35.50;;
50709;SDS011;37033;49.994;21.992;2024-03-22T08:12:31;76.20;;;37.20;;
50709;SDS011;37033;49.994;21.992;2024-03-22T08:15:01;78.90;;;37.20;;
50709;SDS011;37033;49.994;21.992;2024-03-22T08:17:32;76.60;;;37.30;;
50709;SDS011;37033;49.994;21.992;2024-03-22T08:20:03;75.80;;;36.40;;
50709;SDS011;37033;49.994;21.992;2024-03-22T08:22:34;69.70;;;34.90;;
50709;SDS011;37033;49.994;21.992;2024-03-22T08:25:04;70.80;;;35.20;;
50709;SDS011;37033;49.994;21.992;2024-03-22T08:27:35;69.60;;;34.40;;
50709;SDS011;37033;49.994;21.992;2024-03-22T08:30:06;74.40;;;38.70;;
50709;SDS011;37033;49.994;21.992;2024-03-22T08:32:38;76.70;;;36.70;;
50709;SDS011;37033;49.994;21.992;2024-03-22T08:35:08;78.80;;;39.70;;
50709;SDS011;37033;49.994;21.992;2024-03-22T08:37:38;72.50;;;36.10;;
50709;SDS011;37033;49.994;21.992;2024-03-22T08:40:08;71.00;;;35.10;;
50709;SDS011;37033;49.994;21.992;2024-03-22T08:42:41;70.20;;;36.00;;
50709;SDS011;37033;49.994;21.992;2024-03-22T08:45:11;70.70;;;36.40;;
50709;SDS011;37033;49.994;21.992;2024-03-22T08:47:41;68.60;;;35.80;;
50709;SDS011;37033;49.994;21.992;2024-03-22T08:50:13;71.60;;;37.30;;
50709;SDS011;37033;49.994;21.992;2024-03-22T08:52:43;69.60;;;34.40;;
50709;SDS011;37033;49.994;21.992;2024-03-22T08:55:13;54.40;;;30.70;;
50709;SDS011;37033;49.994;21.992;2024-03-22T08:57:43;70.20;;;34.80;;
50709;SDS011;37033;49.994;21.992;2024-03-22T09:00:13;60.20;;;32.60;;
50709;SDS011;37033;49.994;21.992;2024-03-22T09:02:44;63.40;;;34.10;;
50709;SDS011;37033;49.994;21.992;2024-03-22T09:05:14;58.40;;;32.30;;
50709;SDS011;37033;49.994;21.992;2024-03-22T09:07:44;57.40;;;32.20;;
50709;SDS011;37033;49.994;21.992;2024-03-22T09:10:15;63.60;;;33.90;;
50709;SDS011;37033;49.994;21.992;2024-03-22T09:12:45;67.20;;;35.30;;
50709;SDS011;37033;49.994;21.992;2024-03-22T09:15:15;66.00;;;34.60;;
50709;SDS011;37033;49.994;21.992;2024-03-22T09:17:45;61.50;;;31.40;;
50709;SDS011;37033;49.994;21.992;2024-03-22T09:20:16;58.70;;;33.70;;
50709;SDS011;37033;49.994;21.992;2024-03-22T09:22:45;57.40;;;32.20;;
50709;SDS011;37033;49.994;21.992;2024-03-22T09:25:16;64.60;;;32.80;;
50709;SDS011;37033;49.994;21.992;2024-03-22T09:27:46;53.00;;;29.30;;
50709;SDS011;37033;49.994;21.992;2024-03-22T09:30:16;61.60;;;32.20;;
50709;SDS011;37033;49.994;21.992;2024-03-22T09:32:46;61.40;;;32.70;;
50709;SDS011;37033;49.994;21.992;2024-03-22T09:35:16;63.10;;;33.40;;
50709;SDS011;37033;49.994;21.992;2024-03-22T09:37:46;62.20;;;32.60;;
50709;SDS011;37033;49.994;21.992;2024-03-22T09:40:16;54.00;;;31.20;;
50709;SDS011;37033;49.994;21.992;2024-03-22T09:42:46;56.40;;;31.20;;
50709;SDS011;37033;49.994;21.992;2024-03-22T09:45:21;63.10;;;35.00;;
50709;SDS011;37033;49.994;21.992;2024-03-22T09:47:51;62.40;;;33.70;;
50709;SDS011;37033;49.994;21.992;2024-03-22T09:50:23;53.60;;;30.90;;
50709;SDS011;37033;49.994;21.992;2024-03-22T09:52:53;52.10;;;29.40;;
50709;SDS011;37033;49.994;21.992;2024-03-22T09:55:24;56.80;;;31.30;;
50709;SDS011;37033;49.994;21.992;2024-03-22T09:57:54;51.30;;;30.50;;
50709;SDS011;37033;49.994;21.992;2024-03-22T10:00:25;54.00;;;31.70;;
50709;SDS011;37033;49.994;21.992;2024-03-22T10:02:55;62.60;;;31.50;;
50709;SDS011;37033;49.994;21.992;2024-03-22T10:05:26;59.10;;;31.80;;
50709;SDS011;37033;49.994;21.992;2024-03-22T10:07:56;55.30;;;32.10;;
50709;SDS011;37033;49.994;21.992;2024-03-22T10:10:26;51.80;;;30.70;;
50709;SDS011;37033;49.994;21.992;2024-03-22T10:12:56;51.80;;;29.80;;
50709;SDS011;37033;49.994;21.992;2024-03-22T10:15:26;52.90;;;31.00;;
50709;SDS011;37033;49.994;21.992;2024-03-22T10:17:57;59.50;;;31.90;;
50709;SDS011;37033;49.994;21.992;2024-03-22T10:20:28;53.20;;;29.70;;
50709;SDS011;37033;49.994;21.992;2024-03-22T10:22:58;50.30;;;29.00;;
50709;SDS011;37033;49.994;21.992;2024-03-22T10:25:29;54.00;;;30.40;;
50709;SDS011;37033;49.994;21.992;2024-03-22T10:27:59;58.00;;;31.90;;
50709;SDS011;37033;49.994;21.992;2024-03-22T10:30:30;54.80;;;30.30;;
50709;SDS011;37033;49.994;21.992;2024-03-22T10:33:03;53.70;;;29.30;;
50709;SDS011;37033;49.994;21.992;2024-03-22T10:35:34;50.10;;;28.20;;
50709;SDS011;37033;49.994;21.992;2024-03-22T10:38:05;51.30;;;29.10;;
50709;SDS011;37033;49.994;21.992;2024-03-22T10:40:38;47.40;;;27.90;;
50709;SDS011;37033;49.994;21.992;2024-03-22T10:43:08;52.50;;;29.80;;
50709;SDS011;37033;49.994;21.992;2024-03-22T10:45:39;51.10;;;29.00;;
50709;SDS011;37033;49.994;21.992;2024-03-22T10:48:10;47.30;;;26.80;;
50709;SDS011;37033;49.994;21.992;2024-03-22T10:50:40;44.20;;;26.40;;
50709;SDS011;37033;49.994;21.992;2024-03-22T10:53:12;47.70;;;27.90;;
50709;SDS011;37033;49.994;21.992;2024-03-22T10:55:44;52.80;;;29.90;;
50709;SDS011;37033;49.994;21.992;2024-03-22T10:58:17;54.20;;;31.20;;
50709;SDS011;37033;49.994;21.992;2024-03-22T11:00:50;49.60;;;28.30;;
50709;SDS011;37033;49.994;21.992;2024-03-22T11:03:21;46.10;;;28.20;;
50709;SDS011;37033;49.994;21.992;2024-03-22T11:05:54;45.60;;;28.30;;
50709;SDS011;37033;49.994;21.992;2024-03-22T11:08:25;48.80;;;28.50;;
50709;SDS011;37033;49.994;21.992;2024-03-22T11:10:57;52.30;;;29.30;;
50709;SDS011;37033;49.994;21.992;2024-03-22T11:13:37;50.50;;;28.70;;
50709;SDS011;37033;49.994;21.992;2024-03-22T11:16:08;48.20;;;29.70;;
50709;SDS011;37033;49.994;21.992;2024-03-22T11:18:39;52.00;;;26.50;;
50709;SDS011;37033;49.994;21.992;2024-03-22T11:21:09;47.30;;;28.30;;
50709;SDS011;37033;49.994;21.992;2024-03-22T11:23:40;53.00;;;29.00;;
50709;SDS011;37033;49.994;21.992;2024-03-22T11:26:13;49.70;;;28.60;;
50709;SDS011;37033;49.994;21.992;2024-03-22T11:28:43;46.10;;;26.00;;
50709;SDS011;37033;49.994;21.992;2024-03-22T11:31:13;43.00;;;25.90;;
50709;SDS011;37033;49.994;21.992;2024-03-22T11:33:43;49.20;;;28.70;;
50709;SDS011;37033;49.994;21.992;2024-03-22T11:36:14;39.70;;;24.50;;
50709;SDS011;37033;49.994;21.992;2024-03-22T11:38:44;43.90;;;26.40;;
50709;SDS011;37033;49.994;21.992;2024-03-22T11:41:16;42.40;;;26.10;;
50709;SDS011;37033;49.994;21.992;2024-03-22T11:43:49;39.90;;;23.60;;
50709;SDS011;37033;49.994;21.992;2024-03-22T11:46:20;44.70;;;25.30;;
50709;SDS011;37033;49.994;21.992;2024-03-22T11:48:52;38.10;;;24.20;;
50709;SDS011;37033;49.994;21.992;2024-03-22T11:51:22;38.50;;;23.30;;
50709;SDS011;37033;49.994;21.992;2024-03-22T11:53:52;36.30;;;23.70;;
50709;SDS011;37033;49.994;21.992;2024-03-22T11:56:24;48.20;;;27.30;;
50709;SDS011;37033;49.994;21.992;2024-03-22T11:58:58;42.30;;;24.60;;
50709;SDS011;37033;49.994;21.992;2024-03-22T12:01:30;42.40;;;25.60;;
50709;SDS011;37033;49.994;21.992;2024-03-22T12:04:01;47.90;;;29.20;;
50709;SDS011;37033;49.994;21.992;2024-03-22T12:06:31;38.10;;;23.80;;
50709;SDS011;37033;49.994;21.992;2024-03-22T12:09:02;34.10;;;21.50;;
50709;SDS011;37033;49.994;21.992;2024-03-22T12:11:32;43.20;;;23.60;;
50709;SDS011;37033;49.994;21.992;2024-03-22T12:14:02;38.00;;;22.20;;
50709;SDS011;37033;49.994;21.992;2024-03-22T12:16:32;36.20;;;22.50;;
50709;SDS011;37033;49.994;21.992;2024-03-22T12:19:02;43.80;;;23.70;;
50709;SDS011;37033;49.994;21.992;2024-03-22T12:21:34;50.00;;;26.50;;
50709;SDS011;37033;49.994;21.992;2024-03-22T12:24:05;43.30;;;24.10;;
50709;SDS011;37033;49.994;21.992;2024-03-22T12:26:35;36.10;;;22.80;;
50709;SDS011;37033;49.994;21.992;2024-03-22T12:29:05;36.10;;;22.20;;
50709;SDS011;37033;49.994;21.992;2024-03-22T12:31:38;31.50;;;20.60;;
50709;SDS011;37033;49.994;21.992;2024-03-22T12:34:08;28.70;;;19.80;;
50709;SDS011;37033;49.994;21.992;2024-03-22T12:36:38;36.90;;;21.40;;
50709;SDS011;37033;49.994;21.992;2024-03-22T12:39:08;34.30;;;20.30;;
50709;SDS011;37033;49.994;21.992;2024-03-22T12:41:38;37.90;;;23.30;;
50709;SDS011;37033;49.994;21.992;2024-03-22T12:44:08;35.60;;;21.40;;
50709;SDS011;37033;49.994;21.992;2024-03-22T12:46:38;32.30;;;19.00;;
50709;SDS011;37033;49.994;21.992;2024-03-22T12:49:09;29.90;;;18.70;;
50709;SDS011;37033;49.994;21.992;2024-03-22T12:51:39;36.60;;;21.30;;
50709;SDS011;37033;49.994;21.992;2024-03-22T12:54:09;38.80;;;20.30;;
50709;SDS011;37033;49.994;21.992;2024-03-22T12:56:41;31.90;;;21.00;;
50709;SDS011;37033;49.994;21.992;2024-03-22T12:59:11;36.00;;;21.10;;
50709;SDS011;37033;49.994;21.992;2024-03-22T13:01:41;37.00;;;21.80;;
50709;SDS011;37033;49.994;21.992;2024-03-22T13:04:12;35.70;;;21.60;;
50709;SDS011;37033;49.994;21.992;2024-03-22T13:06:42;31.90;;;21.30;;
50709;SDS011;37033;49.994;21.992;2024-03-22T13:09:12;34.20;;;22.40;;
50709;SDS011;37033;49.994;21.992;2024-03-22T13:11:43;39.40;;;22.10;;
50709;SDS011;37033;49.994;21.992;2024-03-22T13:14:13;36.30;;;22.10;;
50709;SDS011;37033;49.994;21.992;2024-03-22T13:16:43;37.90;;;22.60;;
50709;SDS011;37033;49.994;21.992;2024-03-22T13:19:14;36.90;;;23.10;;
50709;SDS011;37033;49.994;21.992;2024-03-22T13:21:45;35.50;;;22.60;;
50709;SDS011;37033;49.994;21.992;2024-03-22T13:24:16;37.10;;;23.30;;
50709;SDS011;37033;49.994;21.992;2024-03-22T13:26:46;38.20;;;24.60;;
50709;SDS011;37033;49.994;21.992;2024-03-22T13:29:16;42.10;;;25.00;;
50709;SDS011;37033;49.994;21.992;2024-03-22T13:31:46;43.40;;;23.90;;
50709;SDS011;37033;49.994;21.992;2024-03-22T13:34:16;37.50;;;23.70;;
50709;SDS011;37033;49.994;21.992;2024-03-22T13:36:46;41.10;;;23.70;;
50709;SDS011;37033;49.994;21.992;2024-03-22T13:39:16;36.40;;;22.50;;
50709;SDS011;37033;49.994;21.992;2024-03-22T13:41:46;37.50;;;23.50;;
50709;SDS011;37033;49.994;21.992;2024-03-22T13:44:16;31.90;;;20.60;;
50709;SDS011;37033;49.994;21.992;2024-03-22T13:46:46;36.10;;;23.40;;
50709;SDS011;37033;49.994;21.992;2024-03-22T13:49:17;33.50;;;21.40;;
50709;SDS011;37033;49.994;21.992;2024-03-22T13:51:48;34.30;;;22.90;;
50709;SDS011;37033;49.994;21.992;2024-03-22T13:54:18;34.60;;;22.60;;
50709;SDS011;37033;49.994;21.992;2024-03-22T13:56:48;38.30;;;23.90;;
50709;SDS011;37033;49.994;21.992;2024-03-22T13:59:18;41.10;;;22.70;;
50709;SDS011;37033;49.994;21.992;2024-03-22T14:01:48;31.60;;;20.60;;
50709;SDS011;37033;49.994;21.992;2024-03-22T14:04:18;33.00;;;21.60;;
50709;SDS011;37033;49.994;21.992;2024-03-22T14:06:48;36.80;;;22.40;;
50709;SDS011;37033;49.994;21.992;2024-03-22T14:09:18;53.20;;;25.60;;
50709;SDS011;37033;49.994;21.992;2024-03-22T14:11:48;43.20;;;25.00;;
50709;SDS011;37033;49.994;21.992;2024-03-22T14:14:18;39.40;;;23.30;;
50709;SDS011;37033;49.994;21.992;2024-03-22T14:16:48;37.70;;;22.20;;
50709;SDS011;37033;49.994;21.992;2024-03-22T14:19:18;39.80;;;22.60;;
50709;SDS011;37033;49.994;21.992;2024-03-22T14:21:48;44.90;;;24.00;;
50709;SDS011;37033;49.994;21.992;2024-03-22T14:24:18;38.70;;;21.90;;
50709;SDS011;37033;49.994;21.992;2024-03-22T14:26:48;36.90;;;21.70;;